Time;durP1;ratioP1;P1;durP2;ratioP2;P2;SDS_P1;SDS_P2;PMS_P1;PMS_P2;Temp;Humidity;BMP_temperature;BMP_pressure;BME280_temperature;BME280_humidity;BME280_pressure;Samples;Min_cycle;Max_cycle;Signal;HPM_P1;HPM_P2
2022/08/18 00:01:47;;;;;;;16.88;14.63;;;17.80;99.90;;;;;;5053820;28;20056;-69
2022/08/18 00:04:14;;;;;;;26.95;20.35;;;17.80;99.90;;;;;;5053362;28;20025;-69
2022/08/18 00:06:40;;;;;;;23.23;18.25;;;17.90;99.90;;;;;;5051847;28;20105;-69
2022/08/18 00:09:08;;;;;;;23.48;18.02;;;17.90;99.90;;;;;;5052967;28;20480;-69
2022/08/18 00:11:40;;;;;;;19.10;14.88;;;17.90;99.90;;;;;;5053312;28;20032;-69
2022/08/18 00:14:08;;;;;;;24.73;18.55;;;17.90;99.90;;;;;;5053173;28;20032;-69
2022/08/18 00:16:34;;;;;;;17.80;14.48;;;18.00;99.90;;;;;;5053324;28;20017;-69
2022/08/18 00:19:00;;;;;;;17.17;14.73;;;17.90;99.90;;;;;;5053134;28;20078;-69
2022/08/18 00:21:26;;;;;;;13.82;12.18;;;17.90;99.90;;;;;;5053553;28;20029;-69
2022/08/18 00:23:52;;;;;;;18.65;15.75;;;17.90;99.90;;;;;;5051332;28;20024;-69
2022/08/18 00:26:18;;;;;;;22.67;15.88;;;18.00;99.90;;;;;;5053465;28;20021;-68
2022/08/18 00:28:44;;;;;;;23.42;16.75;;;18.00;99.90;;;;;;5052849;28;20039;-69
2022/08/18 00:31:09;;;;;;;24.30;17.33;;;18.00;99.90;;;;;;5053236;28;20032;-69
2022/08/18 00:33:35;;;;;;;24.77;18.23;;;18.00;99.90;;;;;;5053144;28;20027;-69
2022/08/18 00:36:00;;;;;;;19.50;16.73;;;18.00;99.90;;;;;;5053363;28;20109;-69
2022/08/18 00:38:26;;;;;;;23.45;18.15;;;18.00;99.90;;;;;;5053068;28;20014;-69
2022/08/18 00:40:54;;;;;;;25.73;18.85;;;18.00;99.90;;;;;;5051022;28;20481;-69
2022/08/18 00:43:35;;;;;;;22.13;17.63;;;18.00;99.90;;;;;;5052974;28;20047;-69
2022/08/18 00:46:00;;;;;;;24.85;19.98;;;18.00;99.90;;;;;;5052984;28;20032;-69
2022/08/18 00:48:26;;;;;;;22.70;19.50;;;18.00;99.90;;;;;;5053024;28;20025;-69
2022/08/18 00:50:55;;;;;;;29.48;21.92;;;18.10;99.90;;;;;;5053152;28;20158;-69
2022/08/18 00:53:33;;;;;;;34.40;23.88;;;18.00;99.90;;;;;;5053149;28;20017;-69
2022/08/18 00:56:04;;;;;;;26.30;21.58;;;18.00;99.90;;;;;;5051897;28;20032;-69
2022/08/18 00:58:36;;;;;;;25.15;21.10;;;18.00;99.90;;;;;;5053498;28;20028;-69
2022/08/18 01:01:08;;;;;;;25.85;20.83;;;18.10;99.90;;;;;;5053066;28;20048;-69
2022/08/18 01:03:38;;;;;;;37.78;27.38;;;18.10;99.90;;;;;;5052745;28;20029;-69
2022/08/18 01:06:13;;;;;;;42.53;30.20;;;18.10;99.90;;;;;;5053105;28;20031;-69
2022/08/18 01:08:40;;;;;;;30.58;24.05;;;18.10;99.90;;;;;;5054239;28;20029;-69
2022/08/18 01:11:06;;;;;;;37.17;28.98;;;18.10;99.90;;;;;;5056512;28;20443;-69
2022/08/18 01:13:33;;;;;;;35.38;28.13;;;18.10;99.90;;;;;;5053081;28;20087;-69
2022/08/18 01:21:49;;;;;;;43.55;27.63;;;18.10;99.90;;;;;;5056508;28;20113;-69
2022/08/18 01:24:16;;;;;;;40.33;26.52;;;18.20;99.90;;;;;;5054447;28;19916;-69
2022/08/18 01:26:48;;;;;;;41.60;27.45;;;18.20;99.90;;;;;;5056346;28;20056;-69
2022/08/18 01:29:16;;;;;;;42.67;31.23;;;18.20;99.90;;;;;;5056516;28;20094;-69
2022/08/18 01:31:46;;;;;;;42.95;29.80;;;18.20;99.90;;;;;;5056165;28;20040;-69
2022/08/18 01:34:12;;;;;;;42.47;32.63;;;18.10;99.90;;;;;;5055983;28;20032;-69
2022/08/18 01:36:40;;;;;;;44.75;33.40;;;18.10;99.90;;;;;;5056103;28;20017;-69
2022/08/18 01:39:08;;;;;;;43.08;29.67;;;18.10;99.90;;;;;;5056128;28;20082;-69
2022/08/18 01:41:33;;;;;;;51.53;35.05;;;18.10;99.90;;;;;;5056068;28;20035;-69
2022/08/18 01:44:01;;;;;;;51.90;36.42;;;18.10;99.90;;;;;;5094419;22;20048;-70
2022/08/18 01:46:29;;;;;;;53.00;36.65;;;18.00;99.90;;;;;;5056039;28;20033;-70
2022/08/18 01:48:57;;;;;;;53.47;38.28;;;18.00;99.90;;;;;;5055989;28;20029;-70
2022/08/18 01:51:23;;;;;;;54.38;40.25;;;18.00;99.90;;;;;;5055853;28;20021;-70
2022/08/18 01:53:48;;;;;;;60.97;40.85;;;18.10;99.90;;;;;;5054324;28;20021;-70
2022/08/18 01:56:16;;;;;;;49.75;36.90;;;18.00;99.90;;;;;;5055817;28;20435;-70
2022/08/18 01:58:42;;;;;;;52.20;38.05;;;18.00;99.90;;;;;;5055745;28;20013;-70
2022/08/18 02:01:09;;;;;;;58.03;40.17;;;18.00;99.90;;;;;;5055778;28;20025;-70
2022/08/18 02:03:39;;;;;;;47.17;35.30;;;18.00;99.90;;;;;;5055703;28;20108;-70
2022/08/18 02:06:09;;;;;;;49.13;34.50;;;18.10;99.90;;;;;;5056040;28;20499;-70
2022/08/18 02:08:35;;;;;;;47.00;35.30;;;18.10;99.90;;;;;;5056093;28;20029;-71
2022/08/18 02:11:02;;;;;;;55.45;39.13;;;18.10;99.90;;;;;;5054418;28;20037;-70
2022/08/18 02:13:28;;;;;;;58.17;40.45;;;18.10;99.90;;;;;;5055825;28;20381;-70
2022/08/18 02:15:54;;;;;;;66.22;42.05;;;18.00;99.90;;;;;;5055562;28;20033;-70
2022/08/18 02:18:26;;;;;;;72.75;45.05;;;18.00;99.90;;;;;;5056358;28;20086;-70
2022/08/18 02:20:52;;;;;;;64.78;44.58;;;18.00;99.90;;;;;;5056304;28;20017;-70
2022/08/18 02:23:17;;;;;;;72.57;44.92;;;18.10;99.90;;;;;;5055314;28;20159;-70
2022/08/18 02:25:43;;;;;;;65.70;45.45;;;18.10;99.90;;;;;;5054422;28;20029;-70
2022/08/18 02:28:09;;;;;;;67.25;47.13;;;18.00;99.90;;;;;;5055272;28;20056;-70
2022/08/18 02:30:38;;;;;;;60.33;42.85;;;18.00;99.90;;;;;;5055177;28;20503;-70
2022/08/18 02:33:09;;;;;;;66.22;44.30;;;18.00;99.90;;;;;;5055303;28;20035;-70
2022/08/18 02:35:36;;;;;;;63.50;41.22;;;18.00;99.90;;;;;;5055136;28;20017;-70
2022/08/18 02:38:06;;;;;;;58.70;42.88;;;18.00;99.90;;;;;;5055009;28;20017;-70
2022/08/18 02:40:33;;;;;;;58.03;41.03;;;18.00;99.90;;;;;;5054972;28;20032;-70
2022/08/18 02:43:04;;;;;;;66.80;42.15;;;18.10;99.90;;;;;;5053224;28;20025;-70
2022/08/18 02:45:29;;;;;;;54.13;38.92;;;18.10;99.90;;;;;;5055261;28;20520;-70
2022/08/18 02:47:55;;;;;;;51.65;35.33;;;18.10;99.90;;;;;;5055481;28;20107;-70
2022/08/18 02:50:22;;;;;;;52.63;40.25;;;18.10;99.90;;;;;;5054752;28;20025;-70
2022/08/18 02:52:48;;;;;;;62.20;38.50;;;18.20;99.90;;;;;;5054611;28;20032;-70
2022/08/18 02:55:15;;;;;;;44.40;33.40;;;18.10;99.90;;;;;;5054774;28;20029;-70
2022/08/18 02:57:47;;;;;;;41.83;27.45;;;18.10;99.90;;;;;;5053329;28;20032;-70
2022/08/18 03:00:15;;;;;;;54.13;35.30;;;18.20;99.90;;;;;;5054900;28;20025;-70
2022/08/18 03:02:53;;;;;;;48.42;34.45;;;18.20;99.90;;;;;;5054394;28;20021;-70
2022/08/18 03:05:19;;;;;;;51.17;33.38;;;18.10;99.90;;;;;;5054889;28;20013;-70
2022/08/18 03:07:45;;;;;;;35.45;28.25;;;18.20;99.90;;;;;;5054566;28;20385;-70
2022/08/18 03:10:13;;;;;;;38.72;26.73;;;18.20;99.90;;;;;;5054388;28;20013;-70
2022/08/18 03:12:42;;;;;;;34.28;25.20;;;18.20;99.90;;;;;;5053247;28;20028;-70
2022/08/18 03:15:07;;;;;;;39.15;27.13;;;18.20;99.90;;;;;;5054325;28;20104;-70
2022/08/18 03:17:36;;;;;;;32.90;24.23;;;18.20;99.90;;;;;;5054339;28;20144;-70
2022/08/18 03:20:03;;;;;;;38.40;27.42;;;18.20;99.90;;;;;;5054168;28;20389;-70
2022/08/18 03:22:29;;;;;;;49.83;29.70;;;18.20;99.90;;;;;;5054405;28;20175;-70
2022/08/18 03:24:56;;;;;;;31.95;23.75;;;18.20;99.90;;;;;;5053406;28;20517;-70
2022/08/18 03:27:21;;;;;;;34.85;24.27;;;18.20;99.90;;;;;;5036299;28;20167;-70
2022/08/18 03:29:47;;;;;;;35.33;23.25;;;18.30;99.90;;;;;;5054276;28;20068;-70
2022/08/18 03:32:12;;;;;;;32.47;24.60;;;18.30;99.90;;;;;;5053280;28;20025;-70
2022/08/18 03:34:38;;;;;;;22.08;18.80;;;18.30;99.90;;;;;;5054019;28;20017;-70
2022/08/18 03:37:04;;;;;;;26.15;18.17;;;18.30;99.90;;;;;;5053828;28;20427;-70
2022/08/18 03:39:30;;;;;;;19.63;16.90;;;18.30;99.90;;;;;;5035027;28;20055;-70
2022/08/18 03:41:56;;;;;;;18.13;16.23;;;18.40;99.90;;;;;;5054216;28;20029;-70
2022/08/18 03:44:22;;;;;;;23.40;17.33;;;18.40;99.90;;;;;;5053717;28;20087;-70
2022/08/18 03:46:49;;;;;;;20.13;15.82;;;18.40;99.90;;;;;;5053768;28;20395;-70
2022/08/18 03:49:16;;;;;;;20.50;16.67;;;18.40;99.90;;;;;;5053784;28;20025;-70
2022/08/18 03:51:45;;;;;;;27.17;17.23;;;18.40;99.90;;;;;;5053673;28;20045;-70
2022/08/18 03:54:12;;;;;;;21.65;15.15;;;18.30;99.90;;;;;;5052717;28;20021;-70
2022/08/18 03:56:40;;;;;;;25.80;20.10;;;18.30;99.90;;;;;;5053588;28;20021;-70
2022/08/18 03:59:16;;;;;;;24.38;17.83;;;18.20;99.90;;;;;;5051534;28;20028;-70
2022/08/18 04:01:44;;;;;;;26.38;17.42;;;18.20;99.90;;;;;;5053919;28;20029;-70
2022/08/18 04:04:13;;;;;;;23.60;17.77;;;18.20;99.90;;;;;;5051633;28;20064;-70
2022/08/18 04:06:53;;;;;;;24.23;18.20;;;18.10;99.90;;;;;;5053822;28;20051;-70
2022/08/18 04:09:20;;;;;;;31.10;18.77;;;18.10;99.90;;;;;;5052256;28;20036;-71
2022/08/18 04:11:46;;;;;;;18.83;14.68;;;18.00;99.90;;;;;;5052183;28;20492;-70
2022/08/18 04:14:15;;;;;;;19.92;14.88;;;18.00;99.90;;;;;;5053309;28;20029;-70
2022/08/18 04:16:41;;;;;;;20.98;15.50;;;18.00;99.90;;;;;;5053209;28;20104;-70
2022/08/18 04:19:08;;;;;;;20.55;13.50;;;17.90;99.90;;;;;;5053692;28;20119;-70
2022/08/18 04:21:38;;;;;;;18.95;12.90;;;17.90;99.90;;;;;;5053284;28;20021;-70
2022/08/18 04:24:06;;;;;;;14.50;12.23;;;17.80;99.90;;;;;;5052469;28;20021;-70
2022/08/18 04:26:34;;;;;;;16.75;14.13;;;17.80;99.90;;;;;;5053535;28;20054;-70
2022/08/18 04:29:00;;;;;;;19.20;13.32;;;17.70;99.90;;;;;;5053226;28;20021;-70
2022/08/18 04:31:28;;;;;;;26.50;17.15;;;17.60;99.90;;;;;;5053241;28;20028;-70
2022/08/18 04:33:55;;;;;;;23.73;17.48;;;17.60;99.90;;;;;;5053164;28;20017;-70
2022/08/18 04:36:21;;;;;;;21.05;15.90;;;17.50;99.90;;;;;;5053458;28;20017;-70
2022/08/18 04:38:46;;;;;;;25.52;14.85;;;17.50;99.90;;;;;;5035290;28;20079;-70
2022/08/18 04:41:12;;;;;;;34.00;22.52;;;17.40;99.90;;;;;;5054254;28;20104;-70
2022/08/18 04:43:39;;;;;;;28.63;20.20;;;17.50;99.90;;;;;;5056367;28;20043;-70
2022/08/18 04:46:05;;;;;;;31.92;21.85;;;17.50;99.90;;;;;;5057208;28;20029;-70
2022/08/18 04:48:33;;;;;;;27.10;20.88;;;17.40;99.90;;;;;;5057422;28;20021;-70
2022/08/18 04:51:08;;;;;;;36.05;26.08;;;17.50;99.90;;;;;;5057464;28;20090;-70
2022/08/18 04:53:44;;;;;;;29.67;23.80;;;17.50;99.90;;;;;;5055366;28;20036;-70
2022/08/18 04:56:24;;;;;;;27.00;21.80;;;17.50;99.90;;;;;;5057315;28;20021;-70
2022/08/18 04:58:52;;;;;;;38.80;24.00;;;17.50;99.90;;;;;;5057270;28;20017;-70
2022/08/18 05:01:21;;;;;;;38.50;26.52;;;17.50;99.90;;;;;;5056911;28;20021;-70
2022/08/18 05:03:49;;;;;;;33.88;26.73;;;17.60;99.90;;;;;;5056961;28;20021;-70
2022/08/18 05:06:15;;;;;;;31.75;24.90;;;17.60;99.90;;;;;;5055803;28;20431;-70
2022/08/18 05:08:41;;;;;;;58.95;28.25;;;17.70;99.90;;;;;;5054289;28;20104;-70
2022/08/18 05:11:08;;;;;;;44.45;27.63;;;17.70;99.90;;;;;;5055138;28;20500;-70
2022/08/18 05:13:34;;;;;;;37.00;23.90;;;17.70;99.90;;;;;;5056578;28;20025;-70
2022/08/18 05:16:03;;;;;;;34.45;26.25;;;17.70;99.90;;;;;;5056722;28;20035;-70
2022/08/18 05:18:30;;;;;;;28.00;22.75;;;17.70;99.90;;;;;;5056627;28;20017;-70
2022/08/18 05:20:56;;;;;;;31.90;19.65;;;17.70;99.90;;;;;;5055625;28;20025;-70
2022/08/18 05:23:22;;;;;;;38.03;22.88;;;17.70;99.90;;;;;;5056416;28;20037;-70
2022/08/18 05:25:48;;;;;;;43.88;23.80;;;17.80;99.90;;;;;;5056412;28;20036;-70
2022/08/18 05:28:14;;;;;;;29.63;18.75;;;17.90;99.90;;;;;;5056404;28;20079;-70
2022/08/18 05:30:41;;;;;;;33.03;21.25;;;17.90;99.90;;;;;;5056263;28;20047;-70
2022/08/18 05:33:09;;;;;;;27.35;18.50;;;17.90;99.90;;;;;;5056527;28;20057;-70
2022/08/18 05:35:48;;;;;;;34.38;19.48;;;17.90;99.90;;;;;;5055310;28;20040;-70
2022/08/18 05:38:31;;;;;;;28.90;21.45;;;17.90;99.90;;;;;;5056569;28;20021;-70
2022/08/18 05:41:32;;;;;;;29.25;21.17;;;18.00;99.90;;;;;;5055265;28;20028;-70
2022/08/18 05:43:59;;;;;;;31.17;20.75;;;18.00;99.90;;;;;;5056126;28;20037;-70
2022/08/18 05:47:06;;;;;;;35.10;22.15;;;18.10;99.90;;;;;;5056076;28;20017;-70
2022/08/18 05:49:34;;;;;;;38.20;23.75;;;18.20;99.90;;;;;;5056241;28;20025;-70
2022/08/18 05:52:04;;;;;;;36.25;21.88;;;18.30;99.90;;;;;;5056321;28;20021;-70
2022/08/18 05:57:26;;;;;;;32.73;25.43;;;18.50;99.90;;;;;;5055972;28;20020;-69
2022/08/18 05:59:53;;;;;;;28.35;20.45;;;18.60;99.90;;;;;;5055848;28;20366;-69
2022/08/18 06:02:46;;;;;;;42.53;25.85;;;18.70;99.90;;;;;;5055707;28;20056;-69
2022/08/18 06:05:20;;;;;;;48.90;27.25;;;18.80;99.90;;;;;;5056045;28;20028;-69
2022/08/18 06:07:51;;;;;;;;;;;19.00;99.90;;;;;;5053247;28;20028;-70
2022/08/18 06:10:17;;;;;;;42.22;24.90;;;19.10;99.90;;;;;;5055779;28;20392;-69
2022/08/18 06:12:48;;;;;;;30.85;25.85;;;19.20;99.90;;;;;;5055700;28;20036;-69
2022/08/18 06:15:28;;;;;;;42.47;26.05;;;19.30;99.90;;;;;;5056119;28;20414;-69
2022/08/18 06:18:26;;;;;;;38.97;24.85;;;19.40;99.90;;;;;;5055780;28;20025;-69
2022/08/18 06:20:54;;;;;;;31.77;22.60;;;19.50;99.90;;;;;;5055374;28;20033;-70
2022/08/18 06:23:37;;;;;;;38.05;26.70;;;19.70;99.90;;;;;;5054199;28;20033;-69
2022/08/18 06:26:33;;;;;;;34.60;24.38;;;19.80;99.90;;;;;;5055586;28;20083;-69
2022/08/18 06:29:26;;;;;;;30.75;23.08;;;19.80;99.90;;;;;;5055231;28;20036;-69
2022/08/18 06:32:12;;;;;;;27.23;20.52;;;19.80;99.90;;;;;;5053171;28;20029;-70
2022/08/18 06:35:07;;;;;;;32.35;18.55;;;19.80;99.90;;;;;;5055131;28;20025;-70
2022/08/18 06:40:38;;;;;;;30.35;17.35;;;19.90;99.90;;;;;;5031985;28;20375;-70
2022/08/18 06:43:10;;;;;;;26.00;19.52;;;19.90;99.90;;;;;;5054814;28;20033;-70
2022/08/18 06:45:40;;;;;;;17.50;15.60;;;20.00;99.90;;;;;;5051426;28;20033;-70
2022/08/18 06:48:17;;;;;;;16.83;14.85;;;20.00;99.90;;;;;;5054707;28;20393;-70
2022/08/18 06:50:59;;;;;;;19.63;16.00;;;20.00;99.90;;;;;;5054851;28;20025;-70
2022/08/18 06:53:51;;;;;;;19.65;16.50;;;20.10;99.90;;;;;;5054563;28;20132;-70
2022/08/18 06:56:30;;;;;;;27.10;19.40;;;20.00;99.90;;;;;;5054981;28;20381;-70
2022/08/18 06:59:12;;;;;;;23.83;16.42;;;20.10;99.90;;;;;;5052435;28;20029;-70
2022/08/18 07:01:38;;;;;;;25.60;16.65;;;20.20;99.90;;;;;;5056407;28;20025;-70
2022/08/18 07:04:04;;;;;;;22.70;19.63;;;20.30;99.90;;;;;;5055893;28;20032;-70
2022/08/18 07:06:30;;;;;;;19.70;16.67;;;20.40;99.90;;;;;;5053518;28;20035;-70
2022/08/18 07:09:17;;;;;;;26.33;19.27;;;20.60;99.90;;;;;;5052590;28;20104;-69
2022/08/18 07:11:59;;;;;;;23.67;18.05;;;20.70;99.90;;;;;;5054424;28;20116;-69
2022/08/18 07:14:27;;;;;;;29.42;17.75;;;20.70;99.90;;;;;;5054410;28;20020;-69
2022/08/18 07:17:10;;;;;;;23.35;18.58;;;20.60;99.90;;;;;;5054365;28;20023;-69
2022/08/18 07:19:36;;;;;;;34.35;19.33;;;20.60;99.90;;;;;;5054450;28;20096;-69
2022/08/18 07:22:04;;;;;;;31.67;18.75;;;20.60;99.90;;;;;;5047528;28;20128;-70
2022/08/18 07:24:37;;;;;;;32.17;19.83;;;20.60;99.90;;;;;;5051354;28;20037;-69
2022/08/18 07:27:09;;;;;;;20.50;14.45;;;20.60;99.90;;;;;;5112122;27;20914;-68
2022/08/18 07:29:40;;;;;;;22.08;17.10;;;20.70;99.90;;;;;;5099114;28;20032;-68
2022/08/18 07:32:17;;;;;;;19.33;17.05;;;20.60;99.90;;;;;;5087107;28;20028;-68
2022/08/18 07:34:53;;;;;;;26.02;16.95;;;20.60;99.90;;;;;;5070701;28;20055;-69
2022/08/18 07:37:27;;;;;;;28.65;17.65;;;20.70;99.90;;;;;;5070848;28;20366;-69
2022/08/18 07:40:02;;;;;;;18.77;15.95;;;21.00;99.90;;;;;;5070939;28;20108;-68
2022/08/18 07:42:47;;;;;;;16.48;13.77;;;21.00;99.90;;;;;;5072584;28;20383;-68
2022/08/18 07:45:22;;;;;;;19.00;12.73;;;21.00;99.90;;;;;;5085682;22;20041;-68
2022/08/18 07:48:03;;;;;;;18.38;13.93;;;21.10;99.90;;;;;;5070487;28;20025;-68
2022/08/18 07:50:37;;;;;;;25.63;16.10;;;21.30;99.90;;;;;;5070779;28;20098;-68
2022/08/18 07:53:05;;;;;;;;;;;21.50;99.90;;;;;;5070933;28;20105;-67
2022/08/18 07:55:36;;;;;;;18.77;12.60;;;21.60;99.90;;;;;;5070252;28;19905;-68
2022/08/18 07:58:25;;;;;;;19.70;13.57;;;21.80;99.90;;;;;;5067217;28;20507;-67
2022/08/18 08:01:09;;;;;;;20.10;14.45;;;21.90;99.90;;;;;;5069779;28;20563;-67
2022/08/18 08:03:45;;;;;;;;;;;22.20;99.90;;;;;;5070530;28;20104;-67
2022/08/18 08:06:36;;;;;;;16.08;12.02;;;22.40;99.90;;;;;;5070014;28;19913;-67
2022/08/18 08:09:21;;;;;;;21.27;12.88;;;22.70;99.90;;;;;;5069983;28;20029;-67
2022/08/18 08:12:00;;;;;;;19.13;12.80;;;23.00;99.90;;;;;;5069343;28;20423;-68
2022/08/18 08:14:35;;;;;;;17.98;11.60;;;23.00;99.90;;;;;;5069803;28;20357;-68
2022/08/18 08:17:37;;;;;;;15.52;10.48;;;22.90;99.90;;;;;;5070395;28;20017;-67
2022/08/18 08:20:07;;;;;;;13.73;10.07;;;23.30;99.90;;;;;;5061132;28;20374;-68
2022/08/18 08:22:48;;;;;;;21.90;10.43;;;23.60;99.90;;;;;;5069687;28;20032;-68
2022/08/18 08:25:40;;;;;;;17.13;9.00;;;24.00;99.90;;;;;;5069779;28;20032;-68
2022/08/18 08:28:12;;;;;;;14.10;9.32;;;24.30;99.90;;;;;;5070638;28;20365;-68
2022/08/18 08:30:48;;;;;;;20.42;10.35;;;24.40;99.90;;;;;;5069456;28;20126;-68
2022/08/18 08:33:34;;;;;;;19.65;10.43;;;24.60;99.90;;;;;;5069397;28;20096;-68
2022/08/18 08:36:16;;;;;;;12.95;8.23;;;24.60;99.90;;;;;;5069687;28;20057;-68
2022/08/18 08:38:44;;;;;;;12.68;8.05;;;24.90;99.90;;;;;;5055779;28;20030;-68
2022/08/18 08:41:30;;;;;;;13.13;8.20;;;25.30;99.90;;;;;;5056333;28;20056;-68
2022/08/18 08:44:21;;;;;;;14.02;7.03;;;25.40;99.90;;;;;;5055163;28;20044;-68
2022/08/18 08:46:51;;;;;;;15.27;7.65;;;25.40;99.90;;;;;;5056241;28;20515;-68
2022/08/18 08:49:39;;;;;;;11.45;6.78;;;25.30;99.90;;;;;;5055918;28;20025;-69
2022/08/18 08:52:29;;;;;;;11.45;7.30;;;25.20;99.90;;;;;;5055160;28;20162;-68
2022/08/18 08:55:04;;;;;;;9.85;7.25;;;25.40;99.90;;;;;;5056033;28;20021;-68
2022/08/18 08:57:41;;;;;;;16.23;7.88;;;25.40;99.90;;;;;;5055769;28;20142;-68
2022/08/18 09:00:11;;;;;;;11.30;6.65;;;25.20;99.90;;;;;;5054443;28;20045;-68
2022/08/18 09:03:05;;;;;;;11.40;7.03;;;25.20;99.90;;;;;;5055921;28;20025;-68
2022/08/18 09:05:38;;;;;;;;;;;25.10;99.90;;;;;;5056037;28;20112;-68
2022/08/18 09:08:09;;;;;;;13.15;7.85;;;24.90;99.90;;;;;;5055885;28;19905;-68
2022/08/18 09:10:50;;;;;;;13.73;8.93;;;24.70;99.90;;;;;;5055819;28;20028;-68
2022/08/18 09:14:03;;;;;;;13.30;8.93;;;24.60;99.90;;;;;;5055586;28;20029;-68
2022/08/18 09:16:51;;;;;;;11.18;7.32;;;24.50;99.90;;;;;;5039316;28;20041;-69
2022/08/18 09:19:33;;;;;;;8.95;6.60;;;24.40;99.90;;;;;;5055034;28;20028;-68
2022/08/18 09:22:15;;;;;;;10.93;7.47;;;24.30;99.90;;;;;;5055260;28;20029;-67
2022/08/18 09:24:53;;;;;;;9.25;7.32;;;24.40;99.90;;;;;;5055466;28;20025;-67
2022/08/18 09:27:41;;;;;;;9.48;7.30;;;24.20;99.90;;;;;;5055172;28;20017;-68
2022/08/18 09:30:28;;;;;;;13.55;8.02;;;24.20;99.90;;;;;;5055191;28;20029;-67
2022/08/18 09:33:19;;;;;;;11.63;7.85;;;24.10;99.90;;;;;;5053318;28;20025;-67
2022/08/18 09:36:01;;;;;;;14.18;9.80;;;24.10;99.90;;;;;;5055316;28;20041;-68
2022/08/18 09:41:36;;;;;;;10.65;7.78;;;24.10;99.90;;;;;;5041843;28;20512;-67
2022/08/18 09:44:10;;;;;;;13.77;10.07;;;24.30;99.90;;;;;;5054905;28;20040;-67
2022/08/18 09:46:41;;;;;;;;;;;24.30;99.90;;;;;;5055370;28;20104;-68
2022/08/18 09:49:28;;;;;;;12.20;10.32;;;24.00;99.90;;;;;;5053033;28;20000;-67
2022/08/18 09:51:58;;;;;;;13.35;8.05;;;23.80;99.90;;;;;;5047859;28;20116;-68
2022/08/18 09:54:27;;;;;;;11.27;8.05;;;23.90;99.90;;;;;;5051971;28;20075;-69
2022/08/18 09:56:57;;;;;;;10.85;9.55;;;24.00;99.90;;;;;;5052287;28;20060;-67
2022/08/18 09:59:31;;;;;;;12.15;8.95;;;24.00;99.90;;;;;;5054320;28;20544;-68
2022/08/18 10:01:58;;;;;;;16.10;9.65;;;24.20;99.90;;;;;;5053735;28;20112;-68
2022/08/18 10:04:27;;;;;;;8.88;7.53;;;24.40;99.90;;;;;;5054508;28;20064;-67
2022/08/18 10:06:53;;;;;;;19.30;10.10;;;24.50;99.90;;;;;;5054379;28;20028;-69
2022/08/18 10:09:41;;;;;;;10.43;7.93;;;24.60;99.90;;;;;;5052826;28;20033;-69
2022/08/18 10:12:13;;;;;;;13.63;9.70;;;24.70;99.90;;;;;;5053598;28;20104;-69
2022/08/18 10:15:25;;;;;;;17.80;10.05;;;24.70;99.90;;;;;;5054026;28;20067;-69
2022/08/18 10:18:12;;;;;;;16.73;10.15;;;24.60;99.90;;;;;;5053627;28;20070;-69
2022/08/18 10:21:19;;;;;;;14.98;9.40;;;24.40;99.90;;;;;;5044375;28;20025;-69
2022/08/18 10:23:48;;;;;;;14.55;9.80;;;24.40;99.90;;;;;;5043723;28;20059;-68
2022/08/18 10:26:32;;;;;;;13.07;10.05;;;24.40;99.90;;;;;;5051197;28;20064;-68
2022/08/18 10:29:10;;;;;;;19.40;11.50;;;24.80;99.90;;;;;;5054200;28;20025;-69
2022/08/18 10:31:54;;;;;;;22.13;10.90;;;24.80;99.90;;;;;;5053475;28;20531;-69
2022/08/18 10:34:40;;;;;;;17.77;11.02;;;24.80;99.90;;;;;;5037094;28;20132;-69
2022/08/18 10:37:22;;;;;;;11.82;9.25;;;24.80;99.90;;;;;;5039874;28;20503;-69
2022/08/18 10:39:54;;;;;;;16.40;10.18;;;24.90;99.90;;;;;;5048740;28;20064;-68
2022/08/18 10:42:43;;;;;;;17.08;11.88;;;25.10;99.90;;;;;;5053993;28;20029;-69
2022/08/18 10:45:24;;;;;;;12.82;8.57;;;25.40;99.90;;;;;;5051694;28;20033;-68
2022/08/18 10:47:59;;;;;;;17.13;8.50;;;25.80;99.90;;;;;;5053828;28;20021;-69
2022/08/18 10:50:28;;;;;;;13.90;8.45;;;26.10;99.90;;;;;;5053500;28;20499;-68
2022/08/18 10:53:00;;;;;;;14.40;8.93;;;26.20;99.90;;;;;;5053714;28;20102;-71
2022/08/18 10:55:41;;;;;;;13.63;7.95;;;26.10;99.90;;;;;;5052943;28;20047;-68
2022/08/18 10:58:57;;;;;;;10.02;7.88;;;26.10;99.90;;;;;;5053741;28;20029;-69
2022/08/18 11:01:44;;;;;;;18.55;8.63;;;26.00;99.90;;;;;;5009752;28;20433;-68
2022/08/18 11:04:19;;;;;;;13.70;7.88;;;25.80;99.90;;;;;;5009742;28;20514;-67
2022/08/18 11:06:49;;;;;;;14.27;8.63;;;25.80;99.90;;;;;;5031244;28;20040;-67
2022/08/18 11:09:24;;;;;;;10.27;6.60;;;25.70;99.90;;;;;;5050909;28;20039;-68
2022/08/18 11:11:51;;;;;;;14.07;8.25;;;25.70;99.90;;;;;;5053463;28;20489;-67
2022/08/18 11:14:43;;;;;;;15.98;7.35;;;25.60;99.90;;;;;;5053239;28;20043;-67
2022/08/18 11:17:14;;;;;;;21.90;8.15;;;25.70;99.90;;;;;;5053854;28;20065;-67
2022/08/18 11:19:43;;;;;;;14.40;8.55;;;25.70;99.90;;;;;;5053240;28;20017;-67
2022/08/18 11:22:31;;;;;;;14.60;7.35;;;25.70;99.90;;;;;;5052669;28;20111;-68
2022/08/18 11:24:57;;;;;;;12.30;7.55;;;26.10;99.90;;;;;;5052777;28;20032;-67
2022/08/18 11:27:28;;;;;;;18.45;9.40;;;26.30;99.90;;;;;;5053131;28;20036;-67
2022/08/18 11:29:58;;;;;;;12.93;7.40;;;26.40;99.90;;;;;;5053537;28;20040;-67
2022/08/18 11:32:31;;;;;;;16.05;9.25;;;26.60;99.90;;;;;;5053454;28;20461;-68
2022/08/18 11:35:19;;;;;;;10.35;7.45;;;26.40;99.90;;;;;;5053324;28;20024;-67
2022/08/18 11:38:02;;;;;;;14.15;8.45;;;26.40;99.90;;;;;;5053182;28;20116;-67
2022/08/18 11:40:43;;;;;;;17.42;9.27;;;26.30;99.90;;;;;;5051655;28;20057;-68
2022/08/18 11:43:09;;;;;;;11.27;7.30;;;26.00;99.90;;;;;;5053100;28;20082;-67
2022/08/18 11:45:54;;;;;;;14.27;9.50;;;25.80;99.90;;;;;;5052935;28;20033;-67
2022/08/18 11:48:25;;;;;;;14.50;8.52;;;25.80;99.90;;;;;;5053111;28;20021;-67
2022/08/18 11:50:54;;;;;;;12.60;8.98;;;25.60;99.90;;;;;;5053144;28;20388;-67
2022/08/18 11:53:31;;;;;;;15.35;8.50;;;25.40;99.90;;;;;;5052923;28;20056;-68
2022/08/18 11:56:12;;;;;;;18.80;9.52;;;25.20;99.90;;;;;;5052304;28;20057;-67
2022/08/18 11:58:47;;;;;;;15.55;9.65;;;25.10;99.90;;;;;;5052948;28;20075;-66
2022/08/18 12:01:34;;;;;;;12.48;9.27;;;25.10;99.90;;;;;;5052856;28;20060;-67
2022/08/18 12:04:12;;;;;;;15.07;8.70;;;25.20;99.90;;;;;;5053128;28;20389;-67
2022/08/18 12:06:54;;;;;;;14.70;8.25;;;25.70;99.90;;;;;;5052748;28;20028;-67
2022/08/18 12:09:22;;;;;;;16.50;9.00;;;25.90;99.90;;;;;;5052990;28;20029;-67
2022/08/18 12:11:52;;;;;;;15.00;8.75;;;25.60;99.90;;;;;;5051347;28;20072;-67
2022/08/18 12:14:21;;;;;;;13.85;9.05;;;25.50;99.90;;;;;;5057106;28;20040;-67
2022/08/18 12:16:47;;;;;;;19.02;8.90;;;25.40;99.90;;;;;;5056824;28;20029;-67
2022/08/18 12:19:14;;;;;;;13.43;9.15;;;25.40;99.90;;;;;;5056478;28;20070;-67
2022/08/18 12:21:48;;;;;;;18.30;9.15;;;25.20;99.90;;;;;;5056430;28;20103;-67
2022/08/18 12:24:25;;;;;;;16.73;8.63;;;25.10;99.90;;;;;;5055516;28;20049;-68
2022/08/18 12:26:51;;;;;;;15.07;7.97;;;25.00;99.90;;;;;;5055521;28;20155;-67
2022/08/18 12:29:18;;;;;;;17.05;8.93;;;24.90;99.90;;;;;;5056308;28;20021;-67
2022/08/18 12:31:45;;;;;;;15.25;8.75;;;24.70;99.90;;;;;;5056206;28;20025;-67
2022/08/18 12:34:10;;;;;;;20.00;9.27;;;24.50;99.90;;;;;;5056410;28;20025;-67
2022/08/18 12:36:37;;;;;;;21.92;9.88;;;24.30;99.90;;;;;;5056441;28;20447;-66
2022/08/18 12:39:02;;;;;;;22.35;9.88;;;24.10;99.90;;;;;;5056404;28;20423;-67
2022/08/18 12:41:28;;;;;;;18.67;8.63;;;24.10;99.90;;;;;;5055129;28;20033;-67
2022/08/18 12:43:54;;;;;;;14.43;9.13;;;24.10;99.90;;;;;;5055847;28;20544;-67
2022/08/18 12:46:20;;;;;;;21.88;10.27;;;24.10;99.90;;;;;;5056171;28;20377;-67
2022/08/18 12:48:46;;;;;;;18.88;10.13;;;24.10;99.90;;;;;;5055979;28;20025;-67
2022/08/18 12:51:12;;;;;;;13.65;9.80;;;24.10;99.90;;;;;;5055977;28;20442;-67
2022/08/18 12:53:38;;;;;;;20.20;10.15;;;24.20;99.90;;;;;;5056047;28;20036;-68
2022/08/18 12:56:29;;;;;;;17.10;8.90;;;24.30;99.90;;;;;;5055847;28;20021;-69
2022/08/18 12:58:56;;;;;;;13.75;8.45;;;24.80;99.90;;;;;;5053960;28;20477;-69
2022/08/18 13:01:26;;;;;;;18.35;8.05;;;26.20;99.90;;;;;;5056037;28;20452;-69
2022/08/18 13:03:54;;;;;;;19.25;7.75;;;27.30;99.90;;;;;;5055581;28;20036;-69
2022/08/18 13:06:24;;;;;;;14.18;7.55;;;27.90;99.90;;;;;;5055600;28;20059;-69
2022/08/18 13:08:50;;;;;;;17.20;7.10;;;28.30;99.90;;;;;;5055634;28;20595;-69
2022/08/18 13:11:21;;;;;;;14.88;7.00;;;28.10;99.90;;;;;;5055495;28;20078;-69
2022/08/18 13:13:47;;;;;;;18.73;8.68;;;27.80;99.90;;;;;;5053905;28;20366;-68
2022/08/18 13:16:13;;;;;;;14.70;8.98;;;27.30;99.90;;;;;;5054843;28;20040;-69